Time;durP1;ratioP1;P1;durP2;ratioP2;P2;SDS_P1;SDS_P2;PMS_P1;PMS_P2;Temp;Humidity;BMP_temperature;BMP_pressure;BME280_temperature;BME280_humidity;BME280_pressure;Samples;Min_cycle;Max_cycle;Signal;HPM_P1;HPM_P2
2023/10/15 00:01:18;;;;;;;1.37;0.20;;;;;;;;;;5076420;28;20412;-77
2023/10/15 00:03:44;;;;;;;1.60;0.20;;;;;;;;;;5074072;28;20415;-89
2023/10/15 00:06:10;;;;;;;3.87;0.20;;;;;;;;;;5073846;28;20864;-81
2023/10/15 00:08:36;;;;;;;0.80;0.27;;;;;;;;;;5073632;28;20419;-87
2023/10/15 00:11:02;;;;;;;1.80;0.20;;;;;;;;;;5074122;28;20469;-90
2023/10/15 00:13:28;;;;;;;6.00;0.20;;;;;;;;;;5056224;28;20422;-83
2023/10/15 00:15:56;;;;;;;3.53;0.20;;;;;;;;;;5073641;28;20777;-84
2023/10/15 00:18:22;;;;;;;2.90;0.20;;;;;;;;;;5073409;28;20409;-89
2023/10/15 00:20:48;;;;;;;3.20;0.30;;;;;;;;;;5073713;28;20418;-89
2023/10/15 00:23:14;;;;;;;2.90;0.30;;;;;;;;;;5073773;28;20409;-90
2023/10/15 00:25:47;;;;;;;1.63;0.40;;;;;;;;;;5073484;28;20425;-86
2023/10/15 00:28:15;;;;;;;1.53;0.20;;;;;;;;;;5073517;28;20412;-90
2023/10/15 00:30:42;;;;;;;3.27;0.20;;;;;;;;;;5073401;28;20476;-84
2023/10/15 00:33:12;;;;;;;3.47;0.60;;;;;;;;;;5073399;28;20467;-88
2023/10/15 00:35:40;;;;;;;1.90;0.30;;;;;;;;;;5055485;28;20428;-88
2023/10/15 00:38:19;;;;;;;3.73;0.53;;;;;;;;;;5055593;28;20505;-75
2023/10/15 00:40:45;;;;;;;3.07;0.20;;;;;;;;;;5055830;28;20932;-91
2023/10/15 00:43:13;;;;;;;2.50;0.47;;;;;;;;;;5073628;28;20499;-86
2023/10/15 00:45:43;;;;;;;4.23;0.63;;;;;;;;;;5073383;28;20399;-77
2023/10/15 00:48:11;;;;;;;3.13;0.50;;;;;;;;;;5073076;28;20556;-87
2023/10/15 00:50:41;;;;;;;3.10;0.20;;;;;;;;;;5073341;28;20469;-88
2023/10/15 00:53:23;;;;;;;1.70;0.30;;;;;;;;;;5067308;28;20417;-88
2023/10/15 00:55:53;;;;;;;2.50;0.27;;;;;;;;;;5052874;28;20858;-87
2023/10/15 00:58:37;;;;;;;4.27;0.30;;;;;;;;;;5053624;28;20412;-93
2023/10/15 01:03:53;;;;;;;0.90;0.20;;;;;;;;;;5053931;28;20405;-82
2023/10/15 01:06:28;;;;;;;0.87;0.20;;;;;;;;;;5056138;28;20402;-74
2023/10/15 01:08:55;;;;;;;2.20;0.40;;;;;;;;;;5057820;28;20825;-92
2023/10/15 01:11:27;;;;;;;1.73;0.30;;;;;;;;;;5057567;28;20474;-93
2023/10/15 01:13:53;;;;;;;5.07;0.53;;;;;;;;;;5058790;28;20401;-80
2023/10/15 01:16:20;;;;;;;3.63;0.60;;;;;;;;;;5060878;28;20434;-93
2023/10/15 01:18:57;;;;;;;3.20;0.60;;;;;;;;;;5057897;28;20406;-92
2023/10/15 01:21:29;;;;;;;4.43;0.20;;;;;;;;;;5057167;28;20418;-93
2023/10/15 01:24:04;;;;;;;6.27;0.67;;;;;;;;;;5056782;28;20492;-87
2023/10/15 01:26:34;;;;;;;2.20;0.20;;;;;;;;;;5038532;28;20827;-78
2023/10/15 01:29:01;;;;;;;1.90;0.40;;;;;;;;;;5056165;28;20775;-85
2023/10/15 01:31:27;;;;;;;1.30;0.20;;;;;;;;;;5055714;28;20467;-79
2023/10/15 01:33:53;;;;;;;5.87;0.50;;;;;;;;;;5038249;28;20418;-85
2023/10/15 01:36:26;;;;;;;7.27;0.70;;;;;;;;;;5056147;28;20766;-81
2023/10/15 01:38:55;;;;;;;2.33;0.43;;;;;;;;;;5056191;28;20403;-88
2023/10/15 01:41:25;;;;;;;2.03;0.33;;;;;;;;;;5056156;28;20754;-85
2023/10/15 01:43:51;;;;;;;2.83;0.30;;;;;;;;;;5038138;28;20468;-88
2023/10/15 01:49:06;;;;;;;4.67;0.40;;;;;;;;;;5056107;28;20463;-87
2023/10/15 01:51:39;;;;;;;2.40;0.73;;;;;;;;;;5056195;28;20886;-87
2023/10/15 01:54:09;;;;;;;5.20;1.00;;;;;;;;;;5057023;28;20452;-78
2023/10/15 01:56:36;;;;;;;5.20;0.73;;;;;;;;;;5056665;28;20449;-86
2023/10/15 01:59:07;;;;;;;3.60;0.77;;;;;;;;;;5055628;28;20422;-85
2023/10/15 02:01:37;;;;;;;1.33;0.20;;;;;;;;;;5055450;28;20402;-83
2023/10/15 02:04:03;;;;;;;1.93;0.20;;;;;;;;;;5055685;28;20402;-88
2023/10/15 02:06:35;;;;;;;4.33;0.43;;;;;;;;;;5055800;28;20409;-89
2023/10/15 02:09:07;;;;;;;4.60;1.03;;;;;;;;;;5055840;28;20413;-75
2023/10/15 02:11:37;;;;;;;4.93;0.20;;;;;;;;;;5055749;28;20466;-88
2023/10/15 02:14:07;;;;;;;3.93;0.30;;;;;;;;;;5055970;28;20918;-89
2023/10/15 02:16:37;;;;;;;7.80;0.70;;;;;;;;;;5054853;28;20408;-91
2023/10/15 02:19:07;;;;;;;4.00;0.40;;;;;;;;;;5037863;28;20418;-85
2023/10/15 02:21:34;;;;;;;5.57;0.40;;;;;;;;;;5055565;28;20412;-84
2023/10/15 02:24:08;;;;;;;3.03;0.47;;;;;;;;;;5055803;28;20448;-78
2023/10/15 02:26:35;;;;;;;1.50;0.20;;;;;;;;;;5055312;28;20401;-86
2023/10/15 02:29:21;;;;;;;2.13;0.40;;;;;;;;;;5055475;28;20488;-83
2023/10/15 02:31:47;;;;;;;3.77;0.30;;;;;;;;;;5054940;28;20461;-87
2023/10/15 02:34:16;;;;;;;2.17;0.30;;;;;;;;;;5055003;28;20401;-86
2023/10/15 02:36:42;;;;;;;1.37;0.30;;;;;;;;;;5054959;28;20841;-83
2023/10/15 02:39:08;;;;;;;3.30;0.20;;;;;;;;;;5055020;28;20408;-88
2023/10/15 02:41:46;;;;;;;1.70;0.40;;;;;;;;;;5054980;28;20417;-85
2023/10/15 02:44:18;;;;;;;3.77;0.30;;;;;;;;;;5054780;28;20409;-75
2023/10/15 02:46:50;;;;;;;1.97;0.40;;;;;;;;;;5059724;28;20424;-85
2023/10/15 02:49:17;;;;;;;3.73;0.40;;;;;;;;;;5063822;28;20412;-81
2023/10/15 02:51:45;;;;;;;3.33;0.30;;;;;;;;;;5065611;28;20462;-76
2023/10/15 02:54:36;;;;;;;2.60;0.20;;;;;;;;;;5074730;28;20407;-82
2023/10/15 02:57:03;;;;;;;1.40;0.20;;;;;;;;;;5075179;28;20405;-88
2023/10/15 02:59:31;;;;;;;2.40;0.60;;;;;;;;;;5075047;28;20900;-93
2023/10/15 03:01:57;;;;;;;1.70;0.30;;;;;;;;;;5074896;28;20417;-91
2023/10/15 03:04:32;;;;;;;1.93;0.20;;;;;;;;;;5075153;28;20414;-92
2023/10/15 03:07:17;;;;;;;3.00;0.50;;;;;;;;;;5074901;28;20408;-89
2023/10/15 03:09:44;;;;;;;3.00;0.20;;;;;;;;;;5075097;28;20394;-76
2023/10/15 03:12:13;;;;;;;2.30;0.20;;;;;;;;;;5056692;28;20925;-85
2023/10/15 03:14:41;;;;;;;1.83;0.47;;;;;;;;;;5074799;28;20413;-77
2023/10/15 03:17:13;;;;;;;5.40;0.40;;;;;;;;;;5074674;28;20408;-91
2023/10/15 03:19:40;;;;;;;2.67;0.97;;;;;;;;;;5074929;28;20487;-80
2023/10/15 03:22:08;;;;;;;2.47;0.20;;;;;;;;;;5074943;28;20408;-91
2023/10/15 03:24:35;;;;;;;2.40;0.30;;;;;;;;;;5074588;28;20915;-91
2023/10/15 03:27:01;;;;;;;2.90;0.30;;;;;;;;;;5074601;28;20428;-79
2023/10/15 03:29:27;;;;;;;2.10;0.30;;;;;;;;;;5074318;28;20446;-89
2023/10/15 03:32:09;;;;;;;4.30;0.43;;;;;;;;;;5074188;28;20515;-75
2023/10/15 03:34:47;;;;;;;4.23;0.47;;;;;;;;;;5074405;28;20748;-84
2023/10/15 03:37:15;;;;;;;3.03;0.33;;;;;;;;;;5074051;28;20970;-85
2023/10/15 03:42:10;;;;;;;3.70;0.30;;;;;;;;;;5073965;28;20420;-86
2023/10/15 03:44:37;;;;;;;4.27;0.57;;;;;;;;;;5052792;28;20424;-88
2023/10/15 03:47:06;;;;;;;3.70;0.80;;;;;;;;;;5053443;28;20838;-85
2023/10/15 03:49:32;;;;;;;2.90;0.20;;;;;;;;;;5036151;28;20502;-82
2023/10/15 03:51:59;;;;;;;6.80;0.60;;;;;;;;;;5053606;28;20469;-85
2023/10/15 03:54:25;;;;;;;4.40;1.13;;;;;;;;;;5053735;28;20398;-84
2023/10/15 03:56:52;;;;;;;11.60;3.20;;;;;;;;;;5053529;28;20443;-81
2023/10/15 03:59:18;;;;;;;6.10;1.60;;;;;;;;;;5053837;28;20404;-89
2023/10/15 04:01:47;;;;;;;3.53;0.60;;;;;;;;;;5053377;28;20467;-87
2023/10/15 04:04:16;;;;;;;7.20;1.17;;;;;;;;;;5053676;28;20425;-87
2023/10/15 04:06:45;;;;;;;4.63;0.70;;;;;;;;;;5053931;28;20775;-75
2023/10/15 04:09:13;;;;;;;9.67;0.60;;;;;;;;;;5053739;28;20414;-86
2023/10/15 04:11:45;;;;;;;1.70;0.20;;;;;;;;;;5053286;28;20469;-85
2023/10/15 04:16:46;;;;;;;1.47;0.30;;;;;;;;;;5052967;28;20406;-88
2023/10/15 04:19:17;;;;;;;0.90;0.20;;;;;;;;;;5053225;28;20463;-84
2023/10/15 04:21:44;;;;;;;1.33;0.20;;;;;;;;;;5053355;28;20406;-83
2023/10/15 04:24:10;;;;;;;4.10;0.20;;;;;;;;;;5053235;28;20504;-75
2023/10/15 04:26:40;;;;;;;2.53;0.20;;;;;;;;;;5053227;28;20443;-75
2023/10/15 04:29:20;;;;;;;7.13;0.50;;;;;;;;;;5053728;28;20410;-91
2023/10/15 04:32:00;;;;;;;1.80;0.20;;;;;;;;;;5053359;28;20500;-76
2023/10/15 04:34:28;;;;;;;2.60;0.20;;;;;;;;;;5053896;28;20953;-76
2023/10/15 04:36:57;;;;;;;2.67;0.30;;;;;;;;;;5053756;28;20499;-89
2023/10/15 04:39:23;;;;;;;2.13;1.50;;;;;;;;;;5053591;28;20437;-87
2023/10/15 04:41:55;;;;;;;0.70;0.20;;;;;;;;;;5056791;28;20408;-89
2023/10/15 04:44:31;;;;;;;1.50;0.20;;;;;;;;;;5057194;28;20431;-79
2023/10/15 04:47:04;;;;;;;2.00;0.20;;;;;;;;;;5056547;28;20444;-83
2023/10/15 04:49:31;;;;;;;0.73;0.20;;;;;;;;;;5057151;28;20420;-79
2023/10/15 04:51:58;;;;;;;3.20;0.70;;;;;;;;;;5039252;28;20469;-79
2023/10/15 04:54:24;;;;;;;3.20;0.30;;;;;;;;;;5057084;28;20401;-81
2023/10/15 04:56:50;;;;;;;2.23;0.33;;;;;;;;;;5056841;28;20896;-76
2023/10/15 04:59:16;;;;;;;2.80;0.47;;;;;;;;;;5056824;28;20408;-77
2023/10/15 05:01:42;;;;;;;1.40;0.20;;;;;;;;;;5056686;28;20409;-74
2023/10/15 05:04:09;;;;;;;1.33;0.30;;;;;;;;;;5056604;28;20421;-75
2023/10/15 05:06:35;;;;;;;4.07;0.20;;;;;;;;;;5056759;28;20414;-75
2023/10/15 05:09:01;;;;;;;2.57;0.20;;;;;;;;;;5056825;28;20443;-77
2023/10/15 05:11:28;;;;;;;2.40;0.50;;;;;;;;;;5056367;28;20481;-74
2023/10/15 05:13:54;;;;;;;1.43;0.20;;;;;;;;;;5056429;28;20417;-74
2023/10/15 05:16:20;;;;;;;1.70;0.20;;;;;;;;;;5056084;28;20952;-75
2023/10/15 05:18:47;;;;;;;2.10;0.20;;;;;;;;;;5056456;28;20495;-74
2023/10/15 05:21:13;;;;;;;1.87;0.27;;;;;;;;;;5056308;28;20914;-75
2023/10/15 05:23:40;;;;;;;1.80;0.20;;;;;;;;;;5056288;28;20457;-75
2023/10/15 05:26:06;;;;;;;3.13;0.40;;;;;;;;;;5056189;28;20418;-75
2023/10/15 05:28:32;;;;;;;1.70;0.20;;;;;;;;;;5056034;28;20432;-76
2023/10/15 05:30:58;;;;;;;3.63;0.50;;;;;;;;;;5055755;28;20835;-75
2023/10/15 05:33:24;;;;;;;2.63;0.30;;;;;;;;;;5056064;28;20422;-74
2023/10/15 05:35:50;;;;;;;2.50;0.10;;;;;;;;;;5038145;28;20433;-74
2023/10/15 05:38:16;;;;;;;2.57;0.53;;;;;;;;;;5038121;28;20412;-76
2023/10/15 05:40:44;;;;;;;2.73;0.20;;;;;;;;;;5055910;28;20415;-75
2023/10/15 05:43:10;;;;;;;3.93;0.30;;;;;;;;;;5055926;28;20398;-76
2023/10/15 05:45:37;;;;;;;1.53;0.30;;;;;;;;;;5055576;28;20422;-75
2023/10/15 05:48:03;;;;;;;0.70;0.20;;;;;;;;;;5055577;28;20855;-77
2023/10/15 05:50:29;;;;;;;2.30;0.57;;;;;;;;;;5055618;28;20509;-73
2023/10/15 05:52:55;;;;;;;2.10;0.30;;;;;;;;;;5054191;28;20484;-86
2023/10/15 05:55:21;;;;;;;2.73;0.70;;;;;;;;;;5055405;28;20898;-75
2023/10/15 05:57:47;;;;;;;2.20;0.20;;;;;;;;;;5055657;28;20881;-74
2023/10/15 06:00:19;;;;;;;1.50;0.33;;;;;;;;;;5055161;28;20444;-77
2023/10/15 06:02:46;;;;;;;0.93;0.30;;;;;;;;;;5037781;28;20487;-74
2023/10/15 06:05:13;;;;;;;0.70;0.20;;;;;;;;;;5055445;28;20446;-75
2023/10/15 06:07:40;;;;;;;0.70;0.20;;;;;;;;;;5055952;28;20401;-77
2023/10/15 06:10:06;;;;;;;1.50;0.30;;;;;;;;;;5055300;28;20855;-75
2023/10/15 06:12:32;;;;;;;4.47;0.20;;;;;;;;;;5037396;28;20433;-76
2023/10/15 06:14:59;;;;;;;4.70;0.70;;;;;;;;;;5055015;28;20418;-75
2023/10/15 06:17:25;;;;;;;1.03;0.20;;;;;;;;;;5055581;28;20413;-75
2023/10/15 06:19:51;;;;;;;1.83;0.30;;;;;;;;;;5037627;28;20548;-78
2023/10/15 06:22:17;;;;;;;2.63;0.20;;;;;;;;;;5055384;28;20525;-74
2023/10/15 06:24:46;;;;;;;0.80;0.30;;;;;;;;;;5055095;28;20406;-75
2023/10/15 06:27:18;;;;;;;1.80;0.20;;;;;;;;;;5055304;28;20988;-74
2023/10/15 06:29:44;;;;;;;1.17;0.20;;;;;;;;;;5055179;28;20398;-88
2023/10/15 06:32:10;;;;;;;1.80;0.30;;;;;;;;;;5054719;28;20504;-75
2023/10/15 06:34:39;;;;;;;1.70;0.20;;;;;;;;;;5054832;28;20454;-75
2023/10/15 06:37:08;;;;;;;2.03;0.20;;;;;;;;;;5054915;28;20166;-78
2023/10/15 06:39:34;;;;;;;2.35;0.20;;;;;;;;;;5054494;28;20443;-89
2023/10/15 06:42:00;;;;;;;0.97;0.20;;;;;;;;;;5054720;28;20192;-75
2023/10/15 06:44:26;;;;;;;0.70;0.20;;;;;;;;;;5054755;28;20410;-75
2023/10/15 06:46:52;;;;;;;4.60;0.30;;;;;;;;;;5054162;28;20964;-74
2023/10/15 06:49:18;;;;;;;1.70;0.20;;;;;;;;;;5054690;28;20774;-85
2023/10/15 06:51:45;;;;;;;2.53;0.20;;;;;;;;;;5054517;28;20563;-75
2023/10/15 06:54:11;;;;;;;2.53;0.20;;;;;;;;;;5054517;28;20436;-74
2023/10/15 06:56:37;;;;;;;1.53;0.20;;;;;;;;;;5054511;28;20455;-74
2023/10/15 06:59:03;;;;;;;1.60;0.20;;;;;;;;;;5054554;28;20480;-74
2023/10/15 07:01:30;;;;;;;0.77;0.20;;;;;;;;;;5054050;28;20427;-85
2023/10/15 07:03:56;;;;;;;2.53;0.20;;;;;;;;;;5054044;28;20410;-75
2023/10/15 07:06:22;;;;;;;1.83;0.47;;;;;;;;;;5054341;28;20452;-77
2023/10/15 07:08:49;;;;;;;1.07;0.20;;;;;;;;;;5036669;28;20898;-74
2023/10/15 07:11:15;;;;;;;2.20;0.37;;;;;;;;;;5054621;28;20470;-86
2023/10/15 07:13:41;;;;;;;3.30;0.20;;;;;;;;;;5054377;28;20415;-87
2023/10/15 07:16:07;;;;;;;1.40;0.20;;;;;;;;;;5054332;28;20419;-92
2023/10/15 07:18:33;;;;;;;2.27;0.30;;;;;;;;;;5054481;28;20415;-88
2023/10/15 07:20:59;;;;;;;2.70;0.30;;;;;;;;;;5054784;28;20907;-91
2023/10/15 07:23:25;;;;;;;1.87;0.30;;;;;;;;;;5054459;28;20821;-86
2023/10/15 07:25:51;;;;;;;2.10;0.20;;;;;;;;;;5054464;28;20415;-75
2023/10/15 07:28:17;;;;;;;1.37;0.20;;;;;;;;;;5054422;28;20414;-86
2023/10/15 07:30:43;;;;;;;4.03;0.20;;;;;;;;;;5053893;28;20807;-89
2023/10/15 07:33:10;;;;;;;1.60;0.30;;;;;;;;;;5054242;28;20505;-88
2023/10/15 07:35:36;;;;;;;1.80;0.20;;;;;;;;;;5054460;28;20502;-92
2023/10/15 07:38:02;;;;;;;0.93;0.30;;;;;;;;;;5054107;28;20453;-75
2023/10/15 07:40:28;;;;;;;2.60;0.30;;;;;;;;;;5054363;28;20415;-85
2023/10/15 07:42:57;;;;;;;1.50;0.30;;;;;;;;;;5054382;28;20476;-81
2023/10/15 07:45:26;;;;;;;2.10;0.40;;;;;;;;;;5053694;28;20858;-83
2023/10/15 07:47:53;;;;;;;0.93;0.17;;;;;;;;;;5054023;28;20462;-91
2023/10/15 07:50:23;;;;;;;4.13;0.87;;;;;;;;;;5053506;28;20551;-86
2023/10/15 07:52:49;;;;;;;2.07;0.20;;;;;;;;;;5053532;28;20432;-86
2023/10/15 07:55:16;;;;;;;2.10;0.20;;;;;;;;;;5053508;28;21076;-86
2023/10/15 07:57:42;;;;;;;2.50;0.20;;;;;;;;;;5053495;28;20409;-75
2023/10/15 08:00:09;;;;;;;0.70;0.20;;;;;;;;;;5035129;28;20848;-75
2023/10/15 08:02:35;;;;;;;2.47;0.63;;;;;;;;;;5053261;28;20460;-80
2023/10/15 08:05:01;;;;;;;2.03;0.20;;;;;;;;;;5053372;28;20418;-83
2023/10/15 08:07:28;;;;;;;0.93;0.20;;;;;;;;;;5035334;28;20437;-87
2023/10/15 08:09:54;;;;;;;7.50;0.40;;;;;;;;;;5053285;28;20824;-85
2023/10/15 08:12:20;;;;;;;1.57;0.30;;;;;;;;;;5035710;28;20426;-77
2023/10/15 08:14:46;;;;;;;2.63;0.30;;;;;;;;;;5052679;28;20418;-76
2023/10/15 08:17:13;;;;;;;2.83;0.33;;;;;;;;;;5053554;28;20899;-78
2023/10/15 08:19:39;;;;;;;1.33;0.20;;;;;;;;;;5053560;28;20468;-81
2023/10/15 08:22:05;;;;;;;4.17;0.20;;;;;;;;;;5035751;28;20438;-82
2023/10/15 08:24:31;;;;;;;1.20;0.23;;;;;;;;;;5053570;28;20415;-79
2023/10/15 08:26:57;;;;;;;1.73;0.20;;;;;;;;;;5053102;28;20501;-83
2023/10/15 08:29:23;;;;;;;2.70;0.37;;;;;;;;;;5052893;28;20469;-79
2023/10/15 08:31:50;;;;;;;2.30;0.67;;;;;;;;;;5052398;28;20982;-85
2023/10/15 08:34:16;;;;;;;1.03;0.37;;;;;;;;;;5053089;28;20806;-88
2023/10/15 08:36:42;;;;;;;1.30;0.30;;;;;;;;;;5053070;28;20441;-84
2023/10/15 08:39:08;;;;;;;2.63;0.23;;;;;;;;;;5053134;28;20416;-90
2023/10/15 08:41:38;;;;;;;1.40;0.20;;;;;;;;;;5053843;28;20495;-75
2023/10/15 08:44:06;;;;;;;0.80;0.20;;;;;;;;;;5052672;28;20425;-89
2023/10/15 08:46:34;;;;;;;1.67;0.30;;;;;;;;;;5052650;28;20414;-76
2023/10/15 08:49:01;;;;;;;1.03;0.20;;;;;;;;;;5052880;28;20435;-78
2023/10/15 08:51:28;;;;;;;1.10;0.20;;;;;;;;;;5052923;28;20829;-77
2023/10/15 08:53:57;;;;;;;1.17;0.30;;;;;;;;;;5053486;28;20493;-91
2023/10/15 08:56:25;;;;;;;1.67;0.20;;;;;;;;;;5059247;28;20434;-78
2023/10/15 08:58:54;;;;;;;0.97;0.60;;;;;;;;;;5061742;28;20936;-85
2023/10/15 09:01:20;;;;;;;0.87;0.20;;;;;;;;;;5060745;28;20920;-82
2023/10/15 09:03:46;;;;;;;2.73;0.20;;;;;;;;;;5067050;28;20411;-81
2023/10/15 09:06:12;;;;;;;0.60;0.20;;;;;;;;;;5072703;28;20753;-80
2023/10/15 09:08:41;;;;;;;0.50;0.20;;;;;;;;;;5072549;28;20461;-79
2023/10/15 09:11:07;;;;;;;1.00;0.20;;;;;;;;;;5072541;28;20844;-78
2023/10/15 09:13:36;;;;;;;0.50;0.20;;;;;;;;;;5072581;28;20404;-82
2023/10/15 09:16:03;;;;;;;0.40;0.20;;;;;;;;;;5072261;28;20433;-82
2023/10/15 09:18:29;;;;;;;1.90;0.20;;;;;;;;;;5072493;28;20463;-83
2023/10/15 09:20:58;;;;;;;1.60;0.20;;;;;;;;;;5072534;28;20432;-80
2023/10/15 09:23:24;;;;;;;0.90;0.20;;;;;;;;;;5072499;28;20409;-82
2023/10/15 09:25:56;;;;;;;0.80;0.20;;;;;;;;;;5072513;28;20399;-81
2023/10/15 09:28:23;;;;;;;7.00;0.33;;;;;;;;;;5076198;28;20816;-80
2023/10/15 09:30:49;;;;;;;0.63;0.20;;;;;;;;;;5075704;28;20471;-80
2023/10/15 09:33:17;;;;;;;1.13;0.30;;;;;;;;;;5075921;28;20410;-80
2023/10/15 09:35:43;;;;;;;0.90;0.40;;;;;;;;;;5076017;28;20421;-81
2023/10/15 09:38:17;;;;;;;0.40;0.20;;;;;;;;;;5058031;28;20422;-76
2023/10/15 09:40:45;;;;;;;3.23;0.30;;;;;;;;;;5075890;28;20947;-79
2023/10/15 09:43:13;;;;;;;0.50;0.20;;;;;;;;;;5075883;28;20501;-81
2023/10/15 09:45:41;;;;;;;1.93;0.20;;;;;;;;;;5075569;28;20428;-78
2023/10/15 09:48:09;;;;;;;2.30;0.23;;;;;;;;;;5075554;28;20537;-81
2023/10/15 09:50:38;;;;;;;4.27;0.20;;;;;;;;;;5075664;28;20958;-82
2023/10/15 09:53:11;;;;;;;1.10;0.10;;;;;;;;;;5075686;28;20407;-81
2023/10/15 09:55:38;;;;;;;1.70;0.33;;;;;;;;;;5074035;28;20428;-80
2023/10/15 09:58:04;;;;;;;1.80;0.20;;;;;;;;;;5037708;28;20424;-76
2023/10/15 10:00:46;;;;;;;2.40;0.20;;;;;;;;;;5055182;28;20419;-82
2023/10/15 10:03:47;;;;;;;1.43;0.20;;;;;;;;;;5055545;28;20466;-81
2023/10/15 10:06:32;;;;;;;1.60;0.20;;;;;;;;;;5055472;28;20411;-78
2023/10/15 10:09:16;;;;;;;1.80;0.40;;;;;;;;;;5055428;28;20429;-76
2023/10/15 10:11:58;;;;;;;1.90;0.40;;;;;;;;;;5055247;28;20499;-78
2023/10/15 10:14:24;;;;;;;1.90;0.20;;;;;;;;;;5054951;28;20410;-76
2023/10/15 10:16:50;;;;;;;1.63;0.30;;;;;;;;;;5055280;28;20401;-76
2023/10/15 10:19:17;;;;;;;4.63;0.30;;;;;;;;;;5055078;28;20424;-76
2023/10/15 10:21:49;;;;;;;1.53;0.20;;;;;;;;;;5055147;28;20894;-79
2023/10/15 10:24:18;;;;;;;1.30;0.27;;;;;;;;;;5055182;28;20454;-76
2023/10/15 10:26:49;;;;;;;4.17;0.87;;;;;;;;;;5055042;28;20419;-77
2023/10/15 10:29:15;;;;;;;1.20;0.20;;;;;;;;;;5054679;28;20431;-77
2023/10/15 10:31:41;;;;;;;1.23;0.40;;;;;;;;;;5054937;28;20547;-81
2023/10/15 10:34:07;;;;;;;3.70;0.37;;;;;;;;;;5060487;28;20492;-84
2023/10/15 10:36:52;;;;;;;0.90;0.20;;;;;;;;;;5062590;28;21058;-83
2023/10/15 10:39:18;;;;;;;1.03;0.20;;;;;;;;;;5061884;28;20169;-82
2023/10/15 10:41:45;;;;;;;1.43;0.30;;;;;;;;;;5069732;28;20462;-78
2023/10/15 10:44:23;;;;;;;1.23;0.20;;;;;;;;;;5074454;28;20510;-78
2023/10/15 10:46:52;;;;;;;0.70;0.20;;;;;;;;;;5056465;28;20930;-83
2023/10/15 10:49:27;;;;;;;2.40;0.20;;;;;;;;;;5074665;28;20426;-81
2023/10/15 10:52:06;;;;;;;1.03;0.20;;;;;;;;;;5074517;28;20508;-81
2023/10/15 10:54:36;;;;;;;0.93;0.40;;;;;;;;;;5074578;28;20404;-80
2023/10/15 10:57:06;;;;;;;0.60;0.40;;;;;;;;;;5056478;28;20419;-81
2023/10/15 10:59:32;;;;;;;0.77;0.10;;;;;;;;;;5063380;28;20415;-80
2023/10/15 11:02:00;;;;;;;1.10;0.20;;;;;;;;;;5073321;28;20570;-83
2023/10/15 11:04:26;;;;;;;1.33;0.30;;;;;;;;;;5074365;28;20415;-80
2023/10/15 11:06:52;;;;;;;2.70;0.30;;;;;;;;;;5056377;28;20415;-81
2023/10/15 11:09:22;;;;;;;3.00;0.73;;;;;;;;;;5074252;28;20424;-82
2023/10/15 11:11:48;;;;;;;0.80;0.30;;;;;;;;;;5074139;28;20480;-80
2023/10/15 11:14:18;;;;;;;1.87;0.30;;;;;;;;;;5055902;28;20752;-79
2023/10/15 11:16:44;;;;;;;0.70;0.10;;;;;;;;;;5074117;28;20450;-83
2023/10/15 11:19:28;;;;;;;1.20;0.20;;;;;;;;;;5074051;28;20915;-83
2023/10/15 11:21:54;;;;;;;2.30;0.20;;;;;;;;;;5056240;28;20413;-86
2023/10/15 11:24:23;;;;;;;1.77;0.20;;;;;;;;;;5074033;28;20499;-82
2023/10/15 11:26:49;;;;;;;2.13;0.20;;;;;;;;;;5069676;28;20177;-81
2023/10/15 11:29:18;;;;;;;1.13;0.10;;;;;;;;;;5063124;28;20467;-84
2023/10/15 11:31:44;;;;;;;2.20;0.20;;;;;;;;;;5062173;28;20473;-81
2023/10/15 11:34:16;;;;;;;1.63;0.37;;;;;;;;;;5065041;28;20411;-85
2023/10/15 11:36:48;;;;;;;2.43;0.30;;;;;;;;;;5067805;28;20425;-84
2023/10/15 11:39:18;;;;;;;1.90;0.37;;;;;;;;;;5063223;28;20490;-86
2023/10/15 11:41:49;;;;;;;2.73;0.40;;;;;;;;;;5061793;28;20440;-82
2023/10/15 11:44:15;;;;;;;2.10;0.20;;;;;;;;;;5062621;28;20414;-86
2023/10/15 11:46:42;;;;;;;3.27;0.63;;;;;;;;;;5060793;28;20437;-83
2023/10/15 11:49:09;;;;;;;2.60;0.30;;;;;;;;;;5053663;28;20419;-83
2023/10/15 11:51:35;;;;;;;2.10;0.30;;;;;;;;;;5059508;28;20473;-81
2023/10/15 11:54:02;;;;;;;0.90;0.20;;;;;;;;;;5073544;28;20914;-76
2023/10/15 11:56:31;;;;;;;1.73;0.20;;;;;;;;;;5055490;28;20501;-75
2023/10/15 11:58:57;;;;;;;1.70;0.20;;;;;;;;;;5073290;28;20414;-85
2023/10/15 12:01:23;;;;;;;1.77;0.20;;;;;;;;;;5073324;28;20444;-75
2023/10/15 12:03:53;;;;;;;2.27;0.30;;;;;;;;;;5073098;28;20417;-75
2023/10/15 12:06:18;;;;;;;1.93;0.53;;;;;;;;;;5073149;28;20414;-75
2023/10/15 12:08:44;;;;;;;1.53;0.50;;;;;;;;;;5073165;28;20411;-75
2023/10/15 12:11:14;;;;;;;2.40;0.30;;;;;;;;;;5072790;28;20559;-78
2023/10/15 12:13:41;;;;;;;0.90;0.20;;;;;;;;;;5073175;28;20403;-76
2023/10/15 12:16:07;;;;;;;0.97;0.23;;;;;;;;;;5072809;28;20406;-77
2023/10/15 12:18:33;;;;;;;0.70;0.30;;;;;;;;;;5073199;28;20830;-77
2023/10/15 12:20:59;;;;;;;1.70;0.20;;;;;;;;;;5073119;28;20420;-76
2023/10/15 12:23:27;;;;;;;1.27;0.20;;;;;;;;;;5073067;28;20402;-81
2023/10/15 12:25:53;;;;;;;0.97;0.20;;;;;;;;;;5073055;28;20395;-78
2023/10/15 12:28:19;;;;;;;1.00;0.30;;;;;;;;;;5072917;28;20444;-75
2023/10/15 12:30:48;;;;;;;1.03;0.20;;;;;;;;;;5072445;28;20806;-74
2023/10/15 12:33:15;;;;;;;2.90;0.30;;;;;;;;;;5072956;28;20224;-78
2023/10/15 12:35:43;;;;;;;0.90;0.30;;;;;;;;;;5073042;28;20417;-78
2023/10/15 12:38:16;;;;;;;2.20;0.30;;;;;;;;;;5072954;28;20839;-80
2023/10/15 12:40:45;;;;;;;2.23;0.20;;;;;;;;;;5073023;28;20411;-75
2023/10/15 12:43:11;;;;;;;1.67;0.27;;;;;;;;;;5072923;28;20966;-75
2023/10/15 12:45:37;;;;;;;2.60;0.30;;;;;;;;;;5070120;28;20423;-75
2023/10/15 12:48:05;;;;;;;2.70;0.20;;;;;;;;;;5060218;28;20466;-74
2023/10/15 12:50:31;;;;;;;1.57;0.20;;;;;;;;;;5064349;28;20488;-75
2023/10/15 12:52:58;;;;;;;2.10;0.30;;;;;;;;;;5072431;28;20468;-75
2023/10/15 12:55:24;;;;;;;2.57;0.30;;;;;;;;;;5072583;28;20770;-76
2023/10/15 12:57:53;;;;;;;1.40;0.30;;;;;;;;;;5072554;28;20417;-78
2023/10/15 13:00:22;;;;;;;1.67;0.20;;;;;;;;;;5072155;28;20412;-79
2023/10/15 13:02:53;;;;;;;3.37;0.30;;;;;;;;;;5075767;28;20413;-85
2023/10/15 13:05:19;;;;;;;4.00;0.73;;;;;;;;;;5076608;28;20408;-79
2023/10/15 13:07:45;;;;;;;1.70;0.20;;;;;;;;;;5076480;28;20441;-86
2023/10/15 13:10:14;;;;;;;1.30;0.20;;;;;;;;;;5076331;28;20460;-74
2023/10/15 13:12:40;;;;;;;1.07;0.23;;;;;;;;;;5076097;28;20415;-75
2023/10/15 13:15:19;;;;;;;1.73;0.30;;;;;;;;;;5075832;28;20494;-76
2023/10/15 13:17:45;;;;;;;1.40;0.20;;;;;;;;;;5076337;28;20453;-76
2023/10/15 13:20:11;;;;;;;2.83;0.37;;;;;;;;;;5076208;28;20405;-75
2023/10/15 13:22:38;;;;;;;3.53;0.60;;;;;;;;;;5074861;28;20422;-83
2023/10/15 13:25:04;;;;;;;2.07;0.40;;;;;;;;;;5075525;28;20410;-84
2023/10/15 13:27:30;;;;;;;4.00;0.43;;;;;;;;;;5076110;28;20768;-81
2023/10/15 13:29:57;;;;;;;2.60;0.73;;;;;;;;;;5075435;28;20414;-76
2023/10/15 13:32:23;;;;;;;3.70;0.80;;;;;;;;;;5075908;28;20418;-83
2023/10/15 13:34:49;;;;;;;4.63;0.40;;;;;;;;;;5075765;28;20914;-81
2023/10/15 13:37:15;;;;;;;3.17;0.30;;;;;;;;;;5075990;28;20758;-77
2023/10/15 13:39:41;;;;;;;3.43;0.20;;;;;;;;;;5075844;28;20414;-77
2023/10/15 13:42:08;;;;;;;3.10;0.37;;;;;;;;;;5075782;28;20486;-76
2023/10/15 13:44:34;;;;;;;2.73;0.40;;;;;;;;;;5066723;28;21037;-82
2023/10/15 13:47:00;;;;;;;3.00;0.30;;;;;;;;;;5073742;28;20506;-82
2023/10/15 13:49:26;;;;;;;7.40;1.07;;;;;;;;;;5075526;28;20565;-78
2023/10/15 13:51:52;;;;;;;3.47;0.40;;;;;;;;;;5075393;28;20473;-78
2023/10/15 13:54:18;;;;;;;4.93;0.77;;;;;;;;;;5075503;28;20432;-80
2023/10/15 13:56:45;;;;;;;4.47;0.63;;;;;;;;;;5075529;28;20408;-77
2023/10/15 13:59:15;;;;;;;1.80;0.30;;;;;;;;;;5075135;28;20398;-75
2023/10/15 14:01:41;;;;;;;4.03;0.50;;;;;;;;;;5074119;28;20432;-76
2023/10/15 14:04:08;;;;;;;3.23;0.40;;;;;;;;;;5074074;28;20431;-76
2023/10/15 14:06:34;;;;;;;9.03;0.83;;;;;;;;;;5074746;28;20499;-75
2023/10/15 14:09:00;;;;;;;6.13;0.80;;;;;;;;;;5075101;28;20414;-76
2023/10/15 14:11:26;;;;;;;2.33;0.67;;;;;;;;;;5075295;28;20479;-83
2023/10/15 14:13:52;;;;;;;1.53;0.40;;;;;;;;;;5073701;28;20403;-85
2023/10/15 14:16:18;;;;;;;8.83;0.53;;;;;;;;;;5075103;28;20397;-75
2023/10/15 14:18:46;;;;;;;5.33;0.70;;;;;;;;;;5075189;28;20771;-80
2023/10/15 14:21:11;;;;;;;3.57;0.30;;;;;;;;;;5075232;28;20405;-85
2023/10/15 14:23:38;;;;;;;3.67;0.43;;;;;;;;;;5075167;28;20415;-85
2023/10/15 14:26:05;;;;;;;2.00;0.50;;;;;;;;;;5075183;28;20400;-85
2023/10/15 14:28:31;;;;;;;4.10;0.57;;;;;;;;;;5074978;28;20949;-83
2023/10/15 14:30:57;;;;;;;2.77;0.47;;;;;;;;;;5074689;28;20471;-87
2023/10/15 14:33:24;;;;;;;6.60;1.07;;;;;;;;;;5074968;28;20415;-83
2023/10/15 14:35:49;;;;;;;3.00;0.40;;;;;;;;;;5074853;28;20501;-74
2023/10/15 14:38:15;;;;;;;3.83;0.53;;;;;;;;;;5074345;28;20436;-75
2023/10/15 14:40:43;;;;;;;5.60;0.70;;;;;;;;;;5074766;28;20451;-74
2023/10/15 14:43:09;;;;;;;6.37;0.70;;;;;;;;;;5074739;28;20412;-81
2023/10/15 14:45:36;;;;;;;2.63;0.40;;;;;;;;;;5074299;28;20408;-75
2023/10/15 14:48:03;;;;;;;2.87;0.30;;;;;;;;;;5072943;28;20486;-79
2023/10/15 14:50:29;;;;;;;6.43;1.10;;;;;;;;;;5074637;28;20458;-84
2023/10/15 14:52:55;;;;;;;2.43;0.20;;;;;;;;;;5074446;28;20432;-74
2023/10/15 14:55:21;;;;;;;1.57;0.40;;;;;;;;;;5056791;28;20415;-85
2023/10/15 14:57:48;;;;;;;3.60;0.47;;;;;;;;;;5074629;28;20919;-81
2023/10/15 15:00:14;;;;;;;4.90;0.30;;;;;;;;;;5074116;28;20412;-84